Terminal Aerodrome Forecast
Issued by NWS

Current Version | Previous Version | Text Only | Print | Product List | Glossary On
Versions: 1 2 3 4 5 6 7 8 9 10 11 12 13 14 15
676
FTUS42 KGSP 231730
TAFAND
TAF
KAND 231730Z 2318/2418 19012G22KT 4SM -SHRA BR OVC015
      TEMPO 2318/2320 VRB15G25KT 1SM +TSRA BR SCT015CB BKN025
     FM232000 22012G22KT P6SM -SHRA BKN025
     FM232200 24011KT P6SM VCSH SCT060 BKN250
     FM240000 26010KT P6SM BKN250
     FM240900 24004KT 4SM BR FEW250
     FM241300 24008KT P6SM FEW250
     FM241600 24014G22KT P6SM FEW250=

USA.gov is the U.S. government's official web portal to all federal, state and local government web resources and services.